Maike D — V2FO4 — position and weather

sailwx.info

Track history (hours):
 
Tides and Currents Weather Stations Pressure Air Temp Water Temp Dewpoint Dewpoint Depression Visibility Wind Speed Wind Dir Waves Ship Positions

Maike D

Last reported at 2014-Jul-29 16:14 UTC. Time now 2014-Jul-29 22:53 UTC.
Position N 40°00' E 026°09'.

Length 133 m; draft 6 m.

Type: Ship (hazmat cat A). MMSI: 305739000.

Date/timePositionNaut miles runAvg speedWind from/ knotsBaromVisibWave heightAir tempDewpointWater temp
2014-Jul-29 16:14N 40°00' E 026°09'1311.5
2014-Jul-29 15:04N 39°53' E 025°54'4613.1
2014-Jul-29 11:33N 39°08' E 025°46'49 1.1
2014-Jul-27 13:34N 38°19' E 025°47'2913.4
2014-Jul-27 11:22N 37°50' E 025°49'1113.3
2014-Jul-27 10:31N 37°38' E 025°51'1313.1
2014-Jul-27 09:33N 37°26' E 025°56'1313.1
2014-Jul-27 08:33N 37°15' E 026°04'1313.4
2014-Jul-27 07:33N 37°02' E 026°11'1313.1
2014-Jul-27 06:33N 36°52' E 026°20'1313.4
2014-Jul-27 05:33N 36°42' E 026°32'1713.7
2014-Jul-27 04:17N 36°30' E 026°48'1213.6
2014-Jul-27 03:23N 36°21' E 026°58'  
2014-Jul-24 00:32N 32°47' E 034°46'42 1.6
2014-Jul-22 22:33N 33°03' E 034°00'1313.3
2014-Jul-22 21:33N 33°08' E 033°46'1313.2
2014-Jul-22 20:33N 33°14' E 033°31'1313.3
2014-Jul-22 19:33N 33°20' E 033°18'1313.4
2014-Jul-22 18:33N 33°27' E 033°03'1313.2
2014-Jul-22 17:33N 33°33' E 032°49'1413.6
2014-Jul-22 16:33N 33°39' E 032°35'1414.0
2014-Jul-22 15:33N 33°45' E 032°20'1613.9
2014-Jul-22 14:22N 33°53' E 032°02'1113.8
2014-Jul-22 13:33N 33°59' E 031°50'1413.9
2014-Jul-22 12:33N 34°05' E 031°36'3113.9
2014-Jul-22 10:22N 34°20' E 031°03'25914.5
2014-Jul-21 16:27N 36°39' E 026°35'1414.9
2014-Jul-21 15:32N 36°49' E 026°23'1515.0
2014-Jul-21 14:33N 37°00' E 026°11'1514.9
2014-Jul-21 13:33N 37°14' E 026°03'1514.9
2014-Jul-21 12:33N 37°27' E 025°54'1514.8
2014-Jul-21 11:33N 37°41' E 025°49'3014.8
2014-Jul-21 09:31N 38°11' E 025°46'1515.1
2014-Jul-21 08:32N 38°26' E 025°46'  
Track history (hours):
 
Tides and Currents Weather Stations Pressure Air Temp Water Temp Dewpoint Dewpoint Depression Visibility Wind Speed Wind Dir Waves Ship Positions

Maike D

Last reported at 2014-Jul-29 16:14 UTC. Time now 2014-Jul-29 22:53 UTC.
Position N 40°00' E 026°09'.

Length 133 m; draft 6 m.

Type: Ship (hazmat cat A). MMSI: 305739000.

Date/timePositionNaut miles runAvg speedWind from/ knotsBaromVisibWave heightAir tempDewpointWater temp
2014-Jul-29 16:14N 40°00' E 026°09'1311.5
2014-Jul-29 15:04N 39°53' E 025°54'4613.1
2014-Jul-29 11:33N 39°08' E 025°46'49 1.1
2014-Jul-27 13:34N 38°19' E 025°47'2913.4
2014-Jul-27 11:22N 37°50' E 025°49'1113.3
2014-Jul-27 10:31N 37°38' E 025°51'1313.1
2014-Jul-27 09:33N 37°26' E 025°56'1313.1
2014-Jul-27 08:33N 37°15' E 026°04'1313.4
2014-Jul-27 07:33N 37°02' E 026°11'1313.1
2014-Jul-27 06:33N 36°52' E 026°20'1313.4
2014-Jul-27 05:33N 36°42' E 026°32'1713.7
2014-Jul-27 04:17N 36°30' E 026°48'1213.6
2014-Jul-27 03:23N 36°21' E 026°58'  
2014-Jul-24 00:32N 32°47' E 034°46'42 1.6
2014-Jul-22 22:33N 33°03' E 034°00'1313.3
2014-Jul-22 21:33N 33°08' E 033°46'1313.2
2014-Jul-22 20:33N 33°14' E 033°31'1313.3
2014-Jul-22 19:33N 33°20' E 033°18'1313.4
2014-Jul-22 18:33N 33°27' E 033°03'1313.2
2014-Jul-22 17:33N 33°33' E 032°49'1413.6
2014-Jul-22 16:33N 33°39' E 032°35'1414.0
2014-Jul-22 15:33N 33°45' E 032°20'1613.9
2014-Jul-22 14:22N 33°53' E 032°02'1113.8
2014-Jul-22 13:33N 33°59' E 031°50'1413.9
2014-Jul-22 12:33N 34°05' E 031°36'3113.9
2014-Jul-22 10:22N 34°20' E 031°03'25914.5
2014-Jul-21 16:27N 36°39' E 026°35'1414.9
2014-Jul-21 15:32N 36°49' E 026°23'1515.0
2014-Jul-21 14:33N 37°00' E 026°11'1514.9
2014-Jul-21 13:33N 37°14' E 026°03'1514.9
2014-Jul-21 12:33N 37°27' E 025°54'1514.8
2014-Jul-21 11:33N 37°41' E 025°49'3014.8
2014-Jul-21 09:31N 38°11' E 025°46'1515.1
2014-Jul-21 08:32N 38°26' E 025°46'  

Dump ship's entire track history